Time;durP1;ratioP1;P1;durP2;ratioP2;P2;SDS_P1;SDS_P2;PMS_P1;PMS_P2;Temp;Humidity;BMP_temperature;BMP_pressure;BME280_temperature;BME280_humidity;BME280_pressure;Samples;Min_cycle;Max_cycle;Signal;HPM_P1;HPM_P2
2023/11/13 00:00:50;;;;;;;8.13;5.43;;;;;;;;;;5051957;28;20498;-60
2023/11/13 00:03:18;;;;;;;9.20;5.78;;;;;;;;;;5053311;28;20053;-59
2023/11/13 00:05:45;;;;;;;8.90;5.43;;;;;;;;;;5056138;28;20060;-60
2023/11/13 00:08:12;;;;;;;10.85;5.43;;;;;;;;;;5056355;28;20053;-59
2023/11/13 00:10:39;;;;;;;9.88;6.68;;;;;;;;;;5055834;28;20060;-59
2023/11/13 00:13:06;;;;;;;9.43;6.10;;;;;;;;;;5056123;28;20505;-60
2023/11/13 00:15:33;;;;;;;7.50;5.18;;;;;;;;;;5055790;28;20049;-60
2023/11/13 00:18:01;;;;;;;7.05;4.93;;;;;;;;;;5056413;28;20057;-60
2023/11/13 00:20:30;;;;;;;8.23;5.57;;;;;;;;;;5055963;28;20424;-60
2023/11/13 00:22:57;;;;;;;10.02;5.00;;;;;;;;;;5055950;28;20056;-59
2023/11/13 00:25:24;;;;;;;8.52;5.10;;;;;;;;;;5055565;28;20072;-60
2023/11/13 00:27:51;;;;;;;7.93;4.70;;;;;;;;;;5055549;28;20053;-60
2023/11/13 00:30:18;;;;;;;7.60;5.25;;;;;;;;;;5055419;28;20056;-60
2023/11/13 00:32:44;;;;;;;10.00;5.10;;;;;;;;;;5055863;28;20052;-59
2023/11/13 00:35:11;;;;;;;9.02;5.10;;;;;;;;;;5055683;28;20051;-59
2023/11/13 00:37:39;;;;;;;7.85;5.30;;;;;;;;;;5055688;28;20056;-59
2023/11/13 00:40:07;;;;;;;8.77;5.18;;;;;;;;;;5055380;28;20053;-60
2023/11/13 00:42:34;;;;;;;15.30;5.50;;;;;;;;;;5055416;28;20152;-59
2023/11/13 00:45:01;;;;;;;8.80;5.40;;;;;;;;;;5055515;28;20045;-59
2023/11/13 00:47:28;;;;;;;7.28;5.05;;;;;;;;;;5055374;28;20489;-59
2023/11/13 00:49:55;;;;;;;7.78;4.90;;;;;;;;;;5055289;28;20053;-59
2023/11/13 00:52:21;;;;;;;8.27;4.68;;;;;;;;;;5055058;28;20060;-59
2023/11/13 00:54:50;;;;;;;8.82;5.10;;;;;;;;;;5055467;28;20052;-59
2023/11/13 00:57:16;;;;;;;7.65;5.15;;;;;;;;;;5055045;28;20064;-60
2023/11/13 00:59:43;;;;;;;8.63;5.60;;;;;;;;;;5055186;28;20119;-59
2023/11/13 01:02:10;;;;;;;9.65;6.00;;;;;;;;;;5054747;28;20064;-59
2023/11/13 01:04:37;;;;;;;8.18;5.40;;;;;;;;;;5055401;28;20069;-59
2023/11/13 01:07:04;;;;;;;7.78;4.35;;;;;;;;;;5054659;28;20055;-59
2023/11/13 01:09:31;;;;;;;6.35;3.88;;;;;;;;;;5054771;28;20052;-60
2023/11/13 01:11:59;;;;;;;6.05;3.90;;;;;;;;;;5055113;28;20059;-60
2023/11/13 01:14:26;;;;;;;5.78;3.83;;;;;;;;;;5054421;28;20053;-60
2023/11/13 01:16:52;;;;;;;6.28;4.35;;;;;;;;;;5054332;28;20059;-60
2023/11/13 01:19:19;;;;;;;5.75;4.03;;;;;;;;;;5054891;28;20250;-60
2023/11/13 01:21:46;;;;;;;7.30;3.50;;;;;;;;;;5054592;28;20057;-59
2023/11/13 01:24:13;;;;;;;7.80;4.30;;;;;;;;;;5054327;28;20067;-60
2023/11/13 01:26:40;;;;;;;5.22;4.00;;;;;;;;;;5054766;28;20049;-60
2023/11/13 01:29:08;;;;;;;7.82;4.00;;;;;;;;;;5054289;28;20053;-60
2023/11/13 01:31:35;;;;;;;8.38;4.13;;;;;;;;;;5054551;28;20060;-60
2023/11/13 01:34:01;;;;;;;7.18;4.20;;;;;;;;;;5054651;28;20060;-59
2023/11/13 01:36:28;;;;;;;7.50;4.38;;;;;;;;;;5054709;28;20057;-59
2023/11/13 01:38:55;;;;;;;4.82;3.67;;;;;;;;;;5054712;28;20053;-60
2023/11/13 01:41:22;;;;;;;7.43;4.10;;;;;;;;;;5054432;28;20163;-60
2023/11/13 01:43:48;;;;;;;7.28;4.63;;;;;;;;;;5054505;28;20049;-60
2023/11/13 01:46:17;;;;;;;7.38;4.47;;;;;;;;;;5054227;28;20049;-60
2023/11/13 01:48:44;;;;;;;7.45;4.47;;;;;;;;;;5051970;28;20064;-60
2023/11/13 01:51:11;;;;;;;7.90;4.93;;;;;;;;;;5053800;28;20171;-59
2023/11/13 01:53:37;;;;;;;6.75;4.30;;;;;;;;;;5054274;28;20053;-60
2023/11/13 01:56:05;;;;;;;7.47;4.28;;;;;;;;;;5054182;28;20064;-60
2023/11/13 01:58:31;;;;;;;7.25;4.40;;;;;;;;;;5054312;28;20063;-60
2023/11/13 02:00:58;;;;;;;5.30;4.05;;;;;;;;;;5054106;28;20483;-59
2023/11/13 02:03:28;;;;;;;4.95;4.18;;;;;;;;;;5054325;28;20049;-60
2023/11/13 02:05:55;;;;;;;4.57;3.90;;;;;;;;;;5053876;28;20053;-60
2023/11/13 02:08:22;;;;;;;6.95;4.20;;;;;;;;;;5053935;28;20056;-60
2023/11/13 02:10:49;;;;;;;6.50;3.97;;;;;;;;;;5054120;28;20060;-61
2023/11/13 02:13:16;;;;;;;7.88;4.60;;;;;;;;;;5053956;28;20478;-60
2023/11/13 02:15:43;;;;;;;5.93;4.05;;;;;;;;;;5053726;28;20052;-59
2023/11/13 02:18:09;;;;;;;5.82;4.20;;;;;;;;;;5053757;28;20148;-59
2023/11/13 02:20:37;;;;;;;6.75;4.55;;;;;;;;;;5053302;28;20060;-60
2023/11/13 02:23:06;;;;;;;6.75;4.50;;;;;;;;;;5053889;28;20056;-60
2023/11/13 02:25:36;;;;;;;6.43;4.68;;;;;;;;;;5053310;28;20371;-60
2023/11/13 02:28:04;;;;;;;7.05;4.70;;;;;;;;;;5053601;28;20064;-60
2023/11/13 02:30:35;;;;;;;5.38;4.30;;;;;;;;;;5053510;28;20071;-59
2023/11/13 02:33:01;;;;;;;6.65;4.32;;;;;;;;;;5053318;28;20049;-60
2023/11/13 02:35:28;;;;;;;6.68;4.13;;;;;;;;;;5053342;28;20406;-60
2023/11/13 02:37:55;;;;;;;7.63;4.47;;;;;;;;;;5053256;28;20060;-59
2023/11/13 02:40:22;;;;;;;6.50;4.55;;;;;;;;;;5053330;28;20056;-60
2023/11/13 02:42:50;;;;;;;6.65;4.55;;;;;;;;;;5053258;28;20045;-60
2023/11/13 02:45:17;;;;;;;5.68;4.47;;;;;;;;;;5052715;28;20430;-60
2023/11/13 02:47:44;;;;;;;6.47;4.60;;;;;;;;;;5052961;28;20171;-60
2023/11/13 02:50:11;;;;;;;7.35;4.65;;;;;;;;;;5052700;28;20644;-60
2023/11/13 02:52:38;;;;;;;6.10;4.57;;;;;;;;;;5053080;28;20414;-59
2023/11/13 02:55:06;;;;;;;7.32;4.60;;;;;;;;;;5053027;28;20057;-59
2023/11/13 02:57:33;;;;;;;7.68;4.80;;;;;;;;;;5052880;28;20053;-60
2023/11/13 03:00:01;;;;;;;6.68;4.38;;;;;;;;;;5053010;28;20486;-61
2023/11/13 03:02:28;;;;;;;7.72;4.80;;;;;;;;;;5053252;28;20478;-60
2023/11/13 03:04:55;;;;;;;6.65;4.50;;;;;;;;;;5053054;28;20486;-60
2023/11/13 03:07:22;;;;;;;7.72;5.30;;;;;;;;;;5052620;28;20064;-60
2023/11/13 03:09:49;;;;;;;6.30;4.30;;;;;;;;;;5052474;28;20065;-61
2023/11/13 03:12:16;;;;;;;6.80;4.90;;;;;;;;;;5052794;28;20053;-60
2023/11/13 03:14:42;;;;;;;6.40;4.55;;;;;;;;;;5052426;28;20516;-60
2023/11/13 03:17:11;;;;;;;8.45;4.95;;;;;;;;;;5052140;28;20056;-59
2023/11/13 03:19:38;;;;;;;7.78;4.43;;;;;;;;;;5052629;28;20057;-60
2023/11/13 03:22:05;;;;;;;5.90;4.78;;;;;;;;;;5052324;28;20056;-60
2023/11/13 03:24:32;;;;;;;5.47;4.25;;;;;;;;;;5052520;28;20052;-59
2023/11/13 03:26:59;;;;;;;6.75;4.65;;;;;;;;;;5052462;28;20052;-59
2023/11/13 03:29:26;;;;;;;5.22;4.25;;;;;;;;;;5052314;28;20052;-60
2023/11/13 03:31:53;;;;;;;5.50;3.85;;;;;;;;;;5052259;28;20068;-60
2023/11/13 03:34:21;;;;;;;7.78;4.95;;;;;;;;;;5052354;28;20049;-60
2023/11/13 03:36:48;;;;;;;5.32;4.18;;;;;;;;;;5052561;28;20156;-59
2023/11/13 03:39:15;;;;;;;6.40;4.43;;;;;;;;;;5052197;28;20433;-60
2023/11/13 03:41:42;;;;;;;6.10;4.28;;;;;;;;;;5051963;28;20056;-60
2023/11/13 03:44:10;;;;;;;6.53;4.82;;;;;;;;;;5052335;28;20049;-60
2023/11/13 03:46:37;;;;;;;6.97;5.38;;;;;;;;;;5051780;28;20061;-59
2023/11/13 03:49:04;;;;;;;6.10;4.22;;;;;;;;;;5052095;28;20093;-59
2023/11/13 03:51:32;;;;;;;4.72;4.05;;;;;;;;;;5052239;28;20406;-60
2023/11/13 03:53:59;;;;;;;6.57;4.40;;;;;;;;;;5052556;28;20060;-60
2023/11/13 03:56:26;;;;;;;6.70;4.45;;;;;;;;;;5052302;28;20053;-60
2023/11/13 03:58:53;;;;;;;5.55;4.53;;;;;;;;;;5052403;28;20064;-60
2023/11/13 04:01:20;;;;;;;5.60;4.60;;;;;;;;;;5052286;28;20508;-60
2023/11/13 04:03:47;;;;;;;7.30;4.47;;;;;;;;;;5052185;28;20486;-60
2023/11/13 04:06:14;;;;;;;5.57;4.22;;;;;;;;;;5052180;28;20049;-59
2023/11/13 04:08:42;;;;;;;5.80;4.35;;;;;;;;;;5052400;28;20398;-60
2023/11/13 04:11:09;;;;;;;5.53;4.32;;;;;;;;;;5051992;28;20057;-59
2023/11/13 04:13:36;;;;;;;7.63;4.55;;;;;;;;;;5051595;28;20072;-60
2023/11/13 04:16:04;;;;;;;5.97;4.30;;;;;;;;;;5051816;28;20064;-60
2023/11/13 04:18:31;;;;;;;5.30;4.30;;;;;;;;;;5052275;28;20055;-60
2023/11/13 04:20:58;;;;;;;6.10;4.50;;;;;;;;;;5052063;28;20053;-60
2023/11/13 04:23:25;;;;;;;5.93;4.22;;;;;;;;;;5052066;28;20140;-60
2023/11/13 04:25:53;;;;;;;6.10;4.30;;;;;;;;;;5051813;28;20052;-60
2023/11/13 04:28:20;;;;;;;9.15;3.95;;;;;;;;;;5051867;28;20383;-60
2023/11/13 04:30:48;;;;;;;5.25;4.22;;;;;;;;;;5051988;28;20060;-60
2023/11/13 04:33:15;;;;;;;5.15;3.90;;;;;;;;;;5052182;28;20053;-60
2023/11/13 04:35:42;;;;;;;4.45;3.85;;;;;;;;;;5051941;28;20056;-60
2023/11/13 04:38:09;;;;;;;7.68;4.53;;;;;;;;;;5052011;28;20482;-60
2023/11/13 04:40:35;;;;;;;5.50;4.22;;;;;;;;;;5051498;28;20498;-60
2023/11/13 04:43:04;;;;;;;6.60;4.47;;;;;;;;;;5051430;28;20056;-60
2023/11/13 04:45:30;;;;;;;7.45;5.18;;;;;;;;;;5051709;28;20049;-60
2023/11/13 04:47:57;;;;;;;4.75;4.20;;;;;;;;;;5051696;28;20053;-60
2023/11/13 04:50:24;;;;;;;5.03;3.88;;;;;;;;;;5053917;28;20494;-60
2023/11/13 04:52:51;;;;;;;6.93;4.20;;;;;;;;;;5055125;28;20056;-60
2023/11/13 04:55:18;;;;;;;5.07;4.13;;;;;;;;;;5055092;28;20049;-59
2023/11/13 04:57:44;;;;;;;7.72;4.55;;;;;;;;;;5055267;28;20055;-60
2023/11/13 05:00:13;;;;;;;5.80;4.10;;;;;;;;;;5055259;28;20072;-59
2023/11/13 05:02:41;;;;;;;5.85;4.10;;;;;;;;;;5055036;28;20061;-60
2023/11/13 05:05:09;;;;;;;5.35;4.30;;;;;;;;;;5055015;28;20057;-60
2023/11/13 05:07:36;;;;;;;6.18;4.80;;;;;;;;;;5055000;28;20048;-60
2023/11/13 05:10:03;;;;;;;8.30;5.10;;;;;;;;;;5054968;28;20057;-60
2023/11/13 05:12:31;;;;;;;7.03;5.38;;;;;;;;;;5054862;28;20502;-60
2023/11/13 05:14:57;;;;;;;7.32;4.95;;;;;;;;;;5054718;28;20378;-59
2023/11/13 05:17:27;;;;;;;7.68;5.75;;;;;;;;;;5054421;28;20053;-60
2023/11/13 05:19:54;;;;;;;6.30;4.38;;;;;;;;;;5054333;28;20064;-60
2023/11/13 05:22:20;;;;;;;6.80;4.85;;;;;;;;;;5054621;28;20052;-60
2023/11/13 05:24:47;;;;;;;7.43;5.25;;;;;;;;;;5054324;28;20049;-60
2023/11/13 05:27:14;;;;;;;5.20;4.70;;;;;;;;;;5054747;28;20056;-60
2023/11/13 05:29:41;;;;;;;6.10;5.30;;;;;;;;;;5054075;28;20182;-60
2023/11/13 05:32:08;;;;;;;11.00;6.03;;;;;;;;;;5054343;28;20052;-60
2023/11/13 05:34:36;;;;;;;10.68;6.50;;;;;;;;;;5054002;28;20049;-60
2023/11/13 05:37:03;;;;;;;8.57;6.13;;;;;;;;;;5053995;28;20414;-59
2023/11/13 05:39:30;;;;;;;7.53;6.15;;;;;;;;;;5053958;28;20056;-60
2023/11/13 05:41:57;;;;;;;6.40;4.90;;;;;;;;;;5053965;28;20049;-60
2023/11/13 05:44:23;;;;;;;6.97;5.55;;;;;;;;;;5054379;28;20049;-60
2023/11/13 05:46:50;;;;;;;9.13;6.80;;;;;;;;;;5054049;28;20060;-60
2023/11/13 05:49:17;;;;;;;7.70;6.22;;;;;;;;;;5053928;28;20053;-60
2023/11/13 05:51:46;;;;;;;8.57;6.60;;;;;;;;;;5053600;28;20429;-60
2023/11/13 05:54:13;;;;;;;9.13;7.32;;;;;;;;;;5053842;28;20049;-59
2023/11/13 05:56:39;;;;;;;9.50;7.63;;;;;;;;;;5053837;28;20056;-60
2023/11/13 05:59:09;;;;;;;8.27;6.65;;;;;;;;;;5053616;28;20056;-60
2023/11/13 06:01:35;;;;;;;8.00;7.20;;;;;;;;;;5052517;28;20057;-59
2023/11/13 06:04:03;;;;;;;10.52;7.95;;;;;;;;;;5053960;28;20060;-60
2023/11/13 06:06:30;;;;;;;11.10;8.68;;;;;;;;;;5053353;28;20057;-60
2023/11/13 06:08:58;;;;;;;10.10;7.95;;;;;;;;;;5054060;28;20053;-60
2023/11/13 06:11:25;;;;;;;10.68;8.02;;;;;;;;;;5053383;28;20617;-60
2023/11/13 06:13:52;;;;;;;8.82;6.88;;;;;;;;;;5053229;28;20387;-60
2023/11/13 06:16:20;;;;;;;9.35;7.15;;;;;;;;;;5053674;28;20352;-60
2023/11/13 06:18:47;;;;;;;8.25;6.78;;;;;;;;;;5053479;28;20049;-60
2023/11/13 06:21:14;;;;;;;8.38;6.50;;;;;;;;;;5053614;28;20060;-60
2023/11/13 06:23:41;;;;;;;8.60;6.20;;;;;;;;;;5053848;28;20381;-59
2023/11/13 06:26:11;;;;;;;9.00;6.70;;;;;;;;;;5053283;28;20056;-61
2023/11/13 06:28:38;;;;;;;6.97;5.45;;;;;;;;;;5053624;28;20052;-60
2023/11/13 06:31:05;;;;;;;4.70;4.05;;;;;;;;;;5053317;28;20060;-60
2023/11/13 06:33:32;;;;;;;5.35;4.55;;;;;;;;;;5053622;28;20387;-60
2023/11/13 06:35:59;;;;;;;5.30;4.20;;;;;;;;;;5053021;28;20502;-60
2023/11/13 06:38:26;;;;;;;4.75;2.78;;;;;;;;;;5053547;28;20053;-60
2023/11/13 06:40:53;;;;;;;2.60;2.20;;;;;;;;;;5053264;28;20504;-59
2023/11/13 06:43:24;;;;;;;3.95;2.97;;;;;;;;;;5053167;28;20056;-60
2023/11/13 06:45:51;;;;;;;3.63;2.67;;;;;;;;;;5052951;28;20060;-60
2023/11/13 06:48:17;;;;;;;3.42;2.20;;;;;;;;;;5053016;28;20057;-59
2023/11/13 06:50:44;;;;;;;2.90;2.10;;;;;;;;;;5052952;28;20446;-60
2023/11/13 06:53:11;;;;;;;4.10;2.10;;;;;;;;;;5052528;28;20057;-60
2023/11/13 06:55:38;;;;;;;2.92;2.20;;;;;;;;;;5053148;28;20056;-60
2023/11/13 06:58:04;;;;;;;4.18;2.20;;;;;;;;;;5053045;28;20057;-60
2023/11/13 07:00:33;;;;;;;3.75;2.38;;;;;;;;;;5052913;28;20056;-60
2023/11/13 07:02:59;;;;;;;6.22;4.40;;;;;;;;;;5052928;28;20048;-60
2023/11/13 07:05:26;;;;;;;4.85;2.70;;;;;;;;;;5052271;28;20422;-60
2023/11/13 07:07:55;;;;;;;4.15;2.47;;;;;;;;;;5052876;28;20064;-59
2023/11/13 07:10:22;;;;;;;4.10;3.20;;;;;;;;;;5052505;28;20057;-60
2023/11/13 07:12:49;;;;;;;4.13;2.83;;;;;;;;;;5051960;28;20060;-60
2023/11/13 07:15:16;;;;;;;5.32;2.60;;;;;;;;;;5052421;28;20056;-60
2023/11/13 07:17:44;;;;;;;6.07;3.00;;;;;;;;;;5052473;28;20067;-59
2023/11/13 07:20:12;;;;;;;6.88;3.60;;;;;;;;;;5052312;28;20048;-60
2023/11/13 07:22:39;;;;;;;4.93;3.20;;;;;;;;;;5051735;28;20052;-60
2023/11/13 07:25:06;;;;;;;6.18;3.50;;;;;;;;;;5051331;28;20478;-60
2023/11/13 07:27:33;;;;;;;8.70;3.45;;;;;;;;;;5052088;28;20065;-59
2023/11/13 07:30:01;;;;;;;7.45;3.58;;;;;;;;;;5052283;28;20060;-60
2023/11/13 07:32:27;;;;;;;6.95;3.53;;;;;;;;;;5051730;28;20053;-60
2023/11/13 07:34:56;;;;;;;5.75;3.60;;;;;;;;;;5051786;28;20057;-59
2023/11/13 07:37:23;;;;;;;9.57;4.05;;;;;;;;;;5052498;28;20060;-59
2023/11/13 07:39:51;;;;;;;7.18;3.92;;;;;;;;;;5052294;28;20049;-59
2023/11/13 07:42:18;;;;;;;9.18;4.32;;;;;;;;;;5052298;28;20474;-59
2023/11/13 07:44:49;;;;;;;7.95;3.85;;;;;;;;;;5051851;28;20502;-60
2023/11/13 07:47:16;;;;;;;7.72;4.22;;;;;;;;;;5051882;28;20055;-59
2023/11/13 07:49:43;;;;;;;9.98;4.30;;;;;;;;;;5052047;28;20053;-59
2023/11/13 07:52:12;;;;;;;10.07;4.80;;;;;;;;;;5052304;28;20053;-59
2023/11/13 07:54:40;;;;;;;10.73;4.20;;;;;;;;;;5052288;28;20049;-59
2023/11/13 07:57:08;;;;;;;9.90;4.10;;;;;;;;;;5051939;28;20053;-60
2023/11/13 07:59:35;;;;;;;7.72;3.88;;;;;;;;;;5051911;28;20060;-59
2023/11/13 08:02:01;;;;;;;6.72;3.78;;;;;;;;;;5052364;28;20053;-59
2023/11/13 08:04:30;;;;;;;6.82;3.97;;;;;;;;;;5052238;28;20509;-60
2023/11/13 08:06:56;;;;;;;9.43;4.10;;;;;;;;;;5052296;28;20398;-60
2023/11/13 08:09:25;;;;;;;8.05;4.03;;;;;;;;;;5052441;28;20406;-60
2023/11/13 08:11:51;;;;;;;6.93;3.50;;;;;;;;;;5051820;28;20406;-59
2023/11/13 08:14:18;;;;;;;7.88;4.55;;;;;;;;;;5051843;28;20507;-59
2023/11/13 08:16:45;;;;;;;7.78;4.50;;;;;;;;;;5051833;28;20052;-60
2023/11/13 08:19:12;;;;;;;9.23;3.67;;;;;;;;;;5051897;28;20048;-60
2023/11/13 08:21:38;;;;;;;7.60;4.13;;;;;;;;;;5051782;28;20052;-59
2023/11/13 08:24:06;;;;;;;6.75;3.40;;;;;;;;;;5052614;28;20067;-60
2023/11/13 08:26:34;;;;;;;6.57;4.03;;;;;;;;;;5055307;28;20049;-60
2023/11/13 08:29:01;;;;;;;5.97;3.70;;;;;;;;;;5055841;28;20068;-60
2023/11/13 08:31:28;;;;;;;8.80;3.40;;;;;;;;;;5055469;28;20049;-60
2023/11/13 08:33:56;;;;;;;7.43;2.90;;;;;;;;;;5055484;28;20057;-60
2023/11/13 08:36:23;;;;;;;5.68;2.75;;;;;;;;;;5055506;28;20071;-59
2023/11/13 08:38:50;;;;;;;6.60;3.00;;;;;;;;;;5055307;28;20060;-60
2023/11/13 08:41:18;;;;;;;6.93;2.60;;;;;;;;;;5055351;28;20057;-59
2023/11/13 08:43:48;;;;;;;5.97;2.58;;;;;;;;;;5055329;28;20057;-61
2023/11/13 08:46:15;;;;;;;5.90;3.13;;;;;;;;;;5054856;28;20049;-60
2023/11/13 08:48:41;;;;;;;6.80;2.90;;;;;;;;;;5055419;28;20410;-60
2023/11/13 08:51:08;;;;;;;6.05;2.88;;;;;;;;;;5054825;28;20175;-60
2023/11/13 08:53:38;;;;;;;7.18;2.92;;;;;;;;;;5055177;28;20057;-60
2023/11/13 08:56:07;;;;;;;6.55;3.28;;;;;;;;;;5055432;28;20052;-60
2023/11/13 08:58:34;;;;;;;6.28;3.05;;;;;;;;;;5055245;28;20057;-60
2023/11/13 09:01:07;;;;;;;6.75;3.17;;;;;;;;;;5055036;28;20398;-60
2023/11/13 09:03:34;;;;;;;7.65;3.83;;;;;;;;;;5055043;28;20049;-60
2023/11/13 09:06:04;;;;;;;17.23;3.90;;;;;;;;;;5054923;28;20490;-60
2023/11/13 09:08:30;;;;;;;;;;;;;;;;;;5055989;28;20052;-61
2023/11/13 09:10:57;;;;;;;7.80;3.22;;;;;;;;;;5055148;28;19932;-60
2023/11/13 09:13:24;;;;;;;8.98;3.50;;;;;;;;;;5055269;28;20486;-62
2023/11/13 09:15:51;;;;;;;11.38;3.50;;;;;;;;;;5054549;28;20045;-63
2023/11/13 09:18:23;;;;;;;7.90;4.85;;;;;;;;;;5055217;28;20065;-63
2023/11/13 09:20:49;;;;;;;8.52;4.10;;;;;;;;;;5054844;28;20486;-62
2023/11/13 09:23:17;;;;;;;6.70;3.38;;;;;;;;;;5054749;28;20060;-61
2023/11/13 09:25:44;;;;;;;13.75;4.00;;;;;;;;;;5054535;28;20056;-61
2023/11/13 09:28:10;;;;;;;6.10;3.53;;;;;;;;;;5054555;28;20049;-61
2023/11/13 09:30:39;;;;;;;13.73;5.53;;;;;;;;;;5055172;28;20064;-62
2023/11/13 09:33:10;;;;;;;12.52;3.92;;;;;;;;;;5054799;28;20084;-62
2023/11/13 09:35:38;;;;;;;9.60;4.50;;;;;;;;;;5054724;28;20433;-62
2023/11/13 09:38:05;;;;;;;10.23;5.47;;;;;;;;;;5055318;28;20049;-62
2023/11/13 09:40:34;;;;;;;7.30;4.07;;;;;;;;;;5054682;28;20056;-62
2023/11/13 09:43:06;;;;;;;17.02;3.05;;;;;;;;;;5054989;28;20053;-63
2023/11/13 09:45:33;;;;;;;10.30;4.35;;;;;;;;;;5054556;28;20053;-62
2023/11/13 09:48:05;;;;;;;6.93;3.08;;;;;;;;;;5053988;28;20057;-62
2023/11/13 09:50:32;;;;;;;10.02;3.63;;;;;;;;;;5054222;28;20057;-62
2023/11/13 09:53:01;;;;;;;6.72;2.83;;;;;;;;;;5054430;28;20097;-63
2023/11/13 09:55:28;;;;;;;13.15;3.10;;;;;;;;;;5054100;28;20056;-62
2023/11/13 09:57:55;;;;;;;9.23;3.97;;;;;;;;;;5054384;28;20060;-62
2023/11/13 10:00:23;;;;;;;6.95;3.35;;;;;;;;;;5054017;28;20052;-62
2023/11/13 10:02:51;;;;;;;8.70;2.80;;;;;;;;;;5053812;28;20414;-61
2023/11/13 10:05:18;;;;;;;6.70;3.58;;;;;;;;;;5053973;28;20485;-62
2023/11/13 10:07:47;;;;;;;6.68;2.60;;;;;;;;;;5054184;28;20052;-62
2023/11/13 10:10:21;;;;;;;3.83;1.83;;;;;;;;;;5054197;28;20064;-63
2023/11/13 10:12:48;;;;;;;4.65;1.92;;;;;;;;;;5054222;28;20064;-63
2023/11/13 10:15:14;;;;;;;5.20;2.13;;;;;;;;;;5054100;28;20049;-63
2023/11/13 10:17:42;;;;;;;6.47;2.40;;;;;;;;;;5053576;28;20049;-62
2023/11/13 10:20:10;;;;;;;6.50;1.92;;;;;;;;;;5054171;28;20509;-63
2023/11/13 10:22:37;;;;;;;4.55;2.47;;;;;;;;;;5054263;28;20049;-62
2023/11/13 10:25:05;;;;;;;8.27;2.67;;;;;;;;;;5053593;28;20057;-65
2023/11/13 10:27:33;;;;;;;4.22;2.17;;;;;;;;;;5053419;28;20410;-63
2023/11/13 10:30:03;;;;;;;7.88;3.05;;;;;;;;;;5053301;28;20060;-63
2023/11/13 10:32:33;;;;;;;4.57;1.85;;;;;;;;;;5053773;28;20064;-64
2023/11/13 10:35:00;;;;;;;3.45;1.58;;;;;;;;;;5053939;28;20433;-63
2023/11/13 10:37:27;;;;;;;4.18;1.50;;;;;;;;;;5053493;28;20056;-63
2023/11/13 10:39:53;;;;;;;3.20;2.03;;;;;;;;;;5053079;28;20049;-64
2023/11/13 10:42:23;;;;;;;3.15;2.00;;;;;;;;;;5053459;28;20052;-64
2023/11/13 10:44:52;;;;;;;4.20;1.90;;;;;;;;;;5053699;28;20056;-64
2023/11/13 10:47:21;;;;;;;4.25;1.77;;;;;;;;;;5052455;28;20064;-64
2023/11/13 10:49:49;;;;;;;3.90;1.75;;;;;;;;;;5053387;28;20061;-63
2023/11/13 10:52:16;;;;;;;4.28;1.80;;;;;;;;;;5053025;28;20052;-64
2023/11/13 10:54:44;;;;;;;2.45;1.35;;;;;;;;;;5053251;28;20406;-64
2023/11/13 10:57:14;;;;;;;2.50;0.98;;;;;;;;;;5053178;28;20048;-64
2023/11/13 10:59:40;;;;;;;2.53;1.17;;;;;;;;;;5053055;28;20441;-64
2023/11/13 11:02:21;;;;;;;2.53;1.30;;;;;;;;;;5053264;28;20501;-64
2023/11/13 11:04:52;;;;;;;2.00;0.88;;;;;;;;;;5052725;28;20053;-64
2023/11/13 11:07:20;;;;;;;3.53;1.33;;;;;;;;;;5052967;28;20398;-64
2023/11/13 11:09:47;;;;;;;1.98;1.30;;;;;;;;;;5052859;28;20068;-64
2023/11/13 11:12:14;;;;;;;2.05;0.95;;;;;;;;;;5052542;28;20052;-64
2023/11/13 11:14:47;;;;;;;3.60;1.60;;;;;;;;;;5052842;28;20064;-65
2023/11/13 11:17:19;;;;;;;4.30;1.50;;;;;;;;;;5052533;28;20052;-64
2023/11/13 11:19:49;;;;;;;3.20;1.50;;;;;;;;;;5052615;28;20052;-64
2023/11/13 11:22:23;;;;;;;3.22;1.17;;;;;;;;;;5052877;28;20490;-65
2023/11/13 11:24:57;;;;;;;4.03;1.50;;;;;;;;;;5052757;28;20052;-64
2023/11/13 11:27:37;;;;;;;2.63;1.40;;;;;;;;;;5052385;28;20044;-65
2023/11/13 11:30:04;;;;;;;;;;;;;;;;;;5053313;28;20056;-64
2023/11/13 11:32:32;;;;;;;5.45;2.30;;;;;;;;;;5052767;28;19921;-65
2023/11/13 11:35:02;;;;;;;5.13;1.98;;;;;;;;;;5052304;28;20053;-64
2023/11/13 11:37:29;;;;;;;4.85;2.10;;;;;;;;;;5052342;28;20045;-65
2023/11/13 11:40:03;;;;;;;3.95;2.00;;;;;;;;;;5052267;28;20052;-65
2023/11/13 11:42:31;;;;;;;5.25;1.83;;;;;;;;;;5052364;28;20062;-65
2023/11/13 11:44:59;;;;;;;3.67;1.88;;;;;;;;;;5051956;28;20057;-65
2023/11/13 11:47:27;;;;;;;5.68;1.95;;;;;;;;;;5051978;28;20057;-65
2023/11/13 11:49:56;;;;;;;5.05;1.70;;;;;;;;;;5052105;28;20049;-65
2023/11/13 11:52:43;;;;;;;3.58;1.80;;;;;;;;;;5052290;28;20055;-65
2023/11/13 11:55:12;;;;;;;6.55;2.13;;;;;;;;;;5052417;28;20049;-65
2023/11/13 11:57:43;;;;;;;4.32;1.63;;;;;;;;;;5052434;28;20059;-65
2023/11/13 12:00:15;;;;;;;5.97;2.38;;;;;;;;;;5054976;28;20060;-66
2023/11/13 12:02:42;;;;;;;5.20;2.20;;;;;;;;;;5056687;28;20053;-66
2023/11/13 12:05:10;;;;;;;5.75;2.28;;;;;;;;;;5056487;28;20063;-66
2023/11/13 12:07:37;;;;;;;3.95;1.77;;;;;;;;;;5056442;28;20053;-66
2023/11/13 12:10:05;;;;;;;5.07;1.80;;;;;;;;;;5056376;28;20398;-66
2023/11/13 12:12:33;;;;;;;3.88;1.77;;;;;;;;;;5056498;28;20074;-66
2023/11/13 12:14:59;;;;;;;2.78;1.70;;;;;;;;;;5056155;28;20057;-65
2023/11/13 12:17:26;;;;;;;4.70;1.98;;;;;;;;;;5056045;28;20053;-66
2023/11/13 12:19:53;;;;;;;6.05;1.92;;;;;;;;;;5056310;28;20076;-65
2023/11/13 12:22:21;;;;;;;3.15;1.73;;;;;;;;;;5056298;28;20071;-65
2023/11/13 12:24:48;;;;;;;3.65;1.83;;;;;;;;;;5055783;28;20053;-65
2023/11/13 12:27:15;;;;;;;4.47;1.58;;;;;;;;;;5056210;28;20049;-64
2023/11/13 12:29:42;;;;;;;4.70;1.80;;;;;;;;;;5055630;28;20045;-64
2023/11/13 12:32:09;;;;;;;4.82;1.83;;;;;;;;;;5056058;28;20060;-64
2023/11/13 12:34:38;;;;;;;5.10;2.35;;;;;;;;;;5056143;28;20139;-64
2023/11/13 12:37:06;;;;;;;7.82;3.08;;;;;;;;;;5056088;28;20059;-64
2023/11/13 12:39:37;;;;;;;8.82;2.75;;;;;;;;;;5055584;28;20423;-64
2023/11/13 12:42:04;;;;;;;11.63;3.13;;;;;;;;;;5055990;28;20049;-61
2023/11/13 12:44:30;;;;;;;14.25;3.35;;;;;;;;;;5055635;28;20053;-62
2023/11/13 12:46:57;;;;;;;11.20;3.20;;;;;;;;;;5055387;28;20060;-63
2023/11/13 12:49:24;;;;;;;21.48;3.63;;;;;;;;;;5055655;28;20382;-63
2023/11/13 12:51:51;;;;;;;15.25;3.47;;;;;;;;;;5055136;28;20057;-65
2023/11/13 12:54:18;;;;;;;7.43;3.30;;;;;;;;;;5055217;28;20053;-65
2023/11/13 12:56:47;;;;;;;9.40;3.95;;;;;;;;;;5055578;28;20059;-64
2023/11/13 12:59:15;;;;;;;10.05;3.60;;;;;;;;;;5055440;28;20406;-65
2023/11/13 13:01:45;;;;;;;5.90;2.83;;;;;;;;;;5055452;28;20052;-64
2023/11/13 13:04:12;;;;;;;4.32;2.10;;;;;;;;;;5054938;28;20056;-64
2023/11/13 13:06:41;;;;;;;5.88;2.35;;;;;;;;;;5055522;28;20057;-63
2023/11/13 13:09:10;;;;;;;5.30;2.42;;;;;;;;;;5054892;28;20053;-63
2023/11/13 13:11:38;;;;;;;4.35;1.90;;;;;;;;;;5054858;28;20053;-63
2023/11/13 13:14:08;;;;;;;3.50;1.70;;;;;;;;;;5054739;28;20067;-63
2023/11/13 13:16:36;;;;;;;3.75;1.88;;;;;;;;;;5054774;28;20053;-64
2023/11/13 13:19:03;;;;;;;7.70;1.98;;;;;;;;;;5054591;28;20045;-64
2023/11/13 13:21:31;;;;;;;3.95;1.98;;;;;;;;;;5055273;28;20053;-64
2023/11/13 13:23:58;;;;;;;3.33;1.67;;;;;;;;;;5055204;28;20053;-63
2023/11/13 13:26:25;;;;;;;5.60;2.30;;;;;;;;;;5055179;28;20057;-63
2023/11/13 13:28:53;;;;;;;3.22;1.70;;;;;;;;;;5055148;28;20402;-64
2023/11/13 13:31:22;;;;;;;4.03;1.55;;;;;;;;;;5054734;28;20053;-64
2023/11/13 13:33:50;;;;;;;2.27;1.50;;;;;;;;;;5054824;28;20053;-63
2023/11/13 13:36:16;;;;;;;9.75;2.10;;;;;;;;;;5054540;28;20059;-63
2023/11/13 13:38:44;;;;;;;5.38;1.50;;;;;;;;;;5054985;28;20053;-64
2023/11/13 13:41:11;;;;;;;3.03;1.70;;;;;;;;;;5054688;28;20056;-63
2023/11/13 13:43:38;;;;;;;3.38;1.83;;;;;;;;;;5054228;28;20052;-63
2023/11/13 13:46:05;;;;;;;3.78;1.60;;;;;;;;;;5054508;28;20053;-64
2023/11/13 13:48:33;;;;;;;17.60;2.55;;;;;;;;;;5054297;28;20045;-63
2023/11/13 13:51:02;;;;;;;4.03;1.80;;;;;;;;;;5054681;28;20454;-65
2023/11/13 13:53:32;;;;;;;5.13;1.90;;;;;;;;;;5054539;28;20401;-66
2023/11/13 13:55:59;;;;;;;8.23;2.38;;;;;;;;;;5054891;28;20049;-65
2023/11/13 13:58:26;;;;;;;8.88;2.60;;;;;;;;;;5054369;28;20049;-66
2023/11/13 14:00:54;;;;;;;4.03;1.77;;;;;;;;;;5054537;28;20056;-68
2023/11/13 14:03:20;;;;;;;13.38;2.42;;;;;;;;;;5054199;28;20080;-67
2023/11/13 14:05:49;;;;;;;7.70;3.33;;;;;;;;;;5054114;28;20474;-67
2023/11/13 14:08:19;;;;;;;8.93;2.30;;;;;;;;;;5053900;28;20037;-66
2023/11/13 14:10:49;;;;;;;3.80;1.83;;;;;;;;;;5053660;28;20064;-67
2023/11/13 14:13:16;;;;;;;2.92;1.70;;;;;;;;;;5053735;28;20060;-66
2023/11/13 14:15:43;;;;;;;4.95;1.50;;;;;;;;;;5053505;28;20053;-66
2023/11/13 14:18:11;;;;;;;4.35;1.92;;;;;;;;;;5053784;28;20156;-66
2023/11/13 14:20:38;;;;;;;4.10;2.30;;;;;;;;;;5053609;28;20056;-65
2023/11/13 14:23:06;;;;;;;2.35;1.55;;;;;;;;;;5052663;28;20053;-65
2023/11/13 14:25:33;;;;;;;2.00;1.40;;;;;;;;;;5053770;28;20053;-64
2023/11/13 14:28:00;;;;;;;2.75;1.45;;;;;;;;;;5054093;28;20064;-64
2023/11/13 14:30:29;;;;;;;3.80;1.60;;;;;;;;;;5053421;28;20059;-65
2023/11/13 14:32:58;;;;;;;2.38;1.70;;;;;;;;;;5053746;28;20498;-64
2023/11/13 14:35:26;;;;;;;2.70;1.42;;;;;;;;;;5053262;28;20505;-64
2023/11/13 14:37:53;;;;;;;2.28;1.25;;;;;;;;;;5053118;28;20060;-64
2023/11/13 14:40:23;;;;;;;1.80;1.00;;;;;;;;;;5053362;28;20057;-64
2023/11/13 14:42:50;;;;;;;2.78;0.90;;;;;;;;;;5053448;28;20053;-64
2023/11/13 14:45:17;;;;;;;4.57;1.10;;;;;;;;;;5053037;28;20049;-65